Rapports des METAR proches

 

LFAQ - Bray, France
Distance from station: SSO 19km
Mise à jour: 20/08/2019 13:30
Très nuageux
Très nuageux
 Vent OSO
Vent: OSO 20 km/h
Température: 21°C
Point de rosée: 10°C
Humidité: 50%
Baromètre: 1024 hPa
Clouds: Très nuageux
Visibility: 10 km
Cloud details: Quelques nuages 1372 m
Partiellement nuageux 1646 m
Très nuageux 4572 m
2019/08/20 11:30 LFAQ 201130Z AUTO 25011KT 220V290 9999 FEW045 SCT054 BKN150 21/10 Q1024 NOSIG
LFQQ - Lille/Lesquin, France
Distance from station: NNE 53km
Mise à jour: 20/08/2019 13:30
Très nuageux
Très nuageux
 Vent OSO
Vent: OSO 17 km/h
Température: 20°C
Point de rosée: 11°C
Humidité: 56%
Baromètre: 1023 hPa
Clouds: Très nuageux
Visibility: 10 km
Cloud details: Quelques nuages 1219 m
Partiellement nuageux 1494 m
Très nuageux 2316 m
2019/08/20 11:30 LFQQ 201130Z AUTO 25009KT 210V270 9999 FEW040 SCT049 BKN076 20/11 Q1023 NOSIG
EBCV - Chievres Ab, Belgium
Distance from station: NE 88km
Mise à jour: 20/08/2019 13:25
Partiellement nuageux
Partiellement nuageux
 Vent SO
Vent: SO 17 km/h
Température: 21°C
Point de rosée: 11°C
Humidité: 53%
Baromètre: 1023 hPa
Clouds: Partiellement nuageux
Visibility: 10 km
Cloud details: Quelques nuages 1189 m
Partiellement nuageux 1463 m
2019/08/20 11:25 EBCV 201125Z AUTO 23009KT 9999 FEW039/// SCT048/// 21/11 Q1023 BLU
 
LFOB - Beauvais/Tille(A, France
Distance from station: SSO 88km
Mise à jour: 20/08/2019 13:30
Partiellement nuageux
Partiellement nuageux
 Vent ONO
Vent: ONO 15 km/h
Température: 21°C
Point de rosée: 11°C
Humidité: 53%
Baromètre: 1024 hPa
Clouds: Partiellement nuageux
Visibility: 10 km
Cloud details: Quelques nuages 1341 m
Partiellement nuageux 1646 m
2019/08/20 11:30 LFOB 201130Z AUTO 30008KT 250V330 9999 FEW044 SCT054 21/11 Q1024 NOSIG
LFAT - Le Touquet/P. Pl, France
Distance from station: ONO 93km
Mise à jour: 20/08/2019 13:30
Très nuageux
Très nuageux
 Vent O
Vent: O 19 km/h
Température: 18°C
Point de rosée: 12°C
Humidité: 68%
Baromètre: 1024 hPa
Clouds: Très nuageux
Visibility: 10 km
Cloud details: Quelques nuages 792 m
Très nuageux 2073 m
2019/08/20 11:30 LFAT 201130Z AUTO 28010KT 250V320 9999 FEW026 BKN068 18/12 Q1024 NOSIG
LFPC - Creil (fafb), France
Distance from station: S 100km
Mise à jour: 01/09/2016 17:00
NOT Current
Clair
Clair
 Vent ONO
Vent: ONO 7 km/h
Température: 24°C
Point de rosée: 13°C
Humidité: 50%
Baromètre: 1023 hPa
Résumé: Clair
Visibility: greater than 10 km
2016/09/01 15:00 LFPC 011500Z AUTO 30004KT 240V350 CAVOK 24/13 Q1023
 
EBFN - Koksijde (bel-Af, Belgium
Distance from station: N 105km
Mise à jour: 20/08/2019 13:25
Quelques nuages
Quelques nuages
 Vent ONO
Vent: ONO 24 km/h
Température: 19°C
Point de rosée: 11°C
Humidité: 60%
Baromètre: 1023 hPa
Clouds: Quelques nuages
Visibility: 10 km
Cloud details: Quelques nuages 914 m
2019/08/20 11:25 EBFN 201125Z 29013KT 9999 FEW030 19/11 Q1023 BLU BLU TEMPO WHT
EBOS - Oostende Airport, Belgium
Distance from station: N 119km
Mise à jour: 20/08/2019 13:20
Quelques nuages
Quelques nuages
 Vent O
Vent: O 26 km/h
Température: 18°C
Point de rosée: 12°C
Humidité: 68%
Baromètre: 1023 hPa
Clouds: Quelques nuages
Visibility: 10 km
Cloud details: Quelques nuages 914 m
2019/08/20 11:20 EBOS 201120Z 27014KT 9999 FEW030 18/12 Q1023 NOSIG
EBCI - Charleroi/Gossel, Belgium
Distance from station: ENE 124km
Mise à jour: 20/08/2019 13:20
Partiellement nuageux
Partiellement nuageux
 Vent O
Vent: O 15 km/h
Température: 19°C
Point de rosée: 9°C
Humidité: 52%
Baromètre: 1023 hPa
Clouds: Partiellement nuageux
Visibility: 10 km
Cloud details: Partiellement nuageux 975 m
2019/08/20 11:20 EBCI 201120Z 27008KT 220V320 9999 SCT032 19/09 Q1023 NOSIG
 
LFPG - Charles De Gaull, France
Distance from station: S 125km
Mise à jour: 20/08/2019 13:30
Partiellement nuageux
Partiellement nuageux
 Vent NO
Vent: NO 11 km/h
Température: 21°C
Point de rosée: 10°C
Humidité: 50%
Baromètre: 1024 hPa
Clouds: Partiellement nuageux
Visibility: 10 km
Cloud details: Partiellement nuageux 1158 m
2019/08/20 11:30 LFPG 201130Z 31006KT 280V340 9999 SCT038 21/10 Q1024 NOSIG
LFPT - Cormeilles Vexin, France
Distance from station: SSO 127km
Mise à jour: 20/08/2019 13:30
Très nuageux
Très nuageux
 Vent NO
Vent: NO 17 km/h
Température: 20°C
Point de rosée: 9°C
Humidité: 49%
Baromètre: 1024 hPa
Clouds: Très nuageux
Visibility: 10 km
Cloud details: Très nuageux 1372 m
2019/08/20 11:30 LFPT 201130Z AUTO 31009KT 280V020 9999 BKN045 20/09 Q1024
LFPB - Paris/Le Bourget, France
Distance from station: S 132km
Mise à jour: 20/08/2019 13:30
Très nuageux
Très nuageux
 Vent varies
Vent: varies 11 km/h
Température: 21°C
Point de rosée: 11°C
Humidité: 53%
Baromètre: 1024 hPa
Clouds: Très nuageux
Visibility: 10 km
Cloud details: Très nuageux 1311 m
Très nuageux 1646 m
2019/08/20 11:30 LFPB 201130Z AUTO VRB06KT 9999 BKN043 BKN054 21/11 Q1024 NOSIG
 
EBFS - Florennes (bel-A, Belgium
Distance from station: E 133km
Mise à jour: 20/08/2019 13:25
Partiellement nuageux
Partiellement nuageux
 Vent OSO
Vent: OSO 19 km/h
Température: 18°C
Point de rosée: 9°C
Humidité: 56%
Baromètre: 1024 hPa
Clouds: Partiellement nuageux
Visibility: 10 km
Cloud details: Quelques nuages 1036 m
Partiellement nuageux 6706 m
2019/08/20 11:25 EBFS 201125Z 25010KT 9999 FEW034 SCT220 18/09 Q1024 BLU BLU
LFQA - Reims/Prunay, France
Distance from station: SE 143km
Mise à jour: 20/08/2019 13:30
Partiellement nuageux
Partiellement nuageux
 Vent SE
Vent: SE 6 km/h
Température: 21°C
Point de rosée: 11°C
Humidité: 53%
Baromètre: 1024 hPa
Clouds: Partiellement nuageux
Visibility: 10 km
Cloud details: Quelques nuages 1097 m
Partiellement nuageux 2682 m
2019/08/20 11:30 LFQA 201130Z AUTO 14003KT 030V190 9999 FEW036 SCT088 21/11 Q1024
LFOP - Rouen/Boos (aut), France
Distance from station: SO 144km
Mise à jour: 29/07/2019 17:30
NOT Current

 Vent varies
Vent: varies 0 km/h
Température: 28°C
Point de rosée: 8°C
Humidité: 28%
Baromètre: 1009 hPa
Visibility: 10 km
2019/07/29 15:30 LFOP 291530Z AUTO /////KT 9999 ////// 28/08 Q1009
 
EBBR - Brussels Nationa, Belgium
Distance from station: NE 148km
Mise à jour: 20/08/2019 13:20
Partiellement nuageux
Partiellement nuageux
 Vent OSO
Vent: OSO 19 km/h
Température: 20°C
Point de rosée: 10°C
Humidité: 53%
Baromètre: 1023 hPa
Clouds: Partiellement nuageux
Visibility: 10 km
Cloud details: Partiellement nuageux 1219 m
2019/08/20 11:20 EBBR 201120Z 25010KT 9999 SCT040 20/10 Q1023 NOSIG
EBBE - Beauvechain (baf, Belgium
Distance from station: ENE 156km
Mise à jour: 20/08/2019 13:25
Quelques nuages
Quelques nuages
 Vent OSO
Vent: OSO 20 km/h
Température: 20°C
Point de rosée: 10°C
Humidité: 53%
Baromètre: 1023 hPa
Clouds: Quelques nuages
Visibility: 10 km
Cloud details: Quelques nuages 975 m
2019/08/20 11:25 EBBE 201125Z 24011KT 9999 FEW032 20/10 Q1023 BLU BLU
EHFS - Vlissingen, Netherlands
Distance from station: NNE 157km
Mise à jour: 20/08/2019 13:25
Clair
Clair
 Vent O
Vent: O 33 km/h
Température: 18°C
Point de rosée: 11°C
Humidité: 64%
Baromètre: 1022 hPa
Clouds: Clair
Visibility: 10 km
2019/08/20 11:25 EHFS 201125Z AUTO 27018KT 230V290 9999 NCD 18/11 Q1022 W///H///
 
LFPV - Villacoublay/Vel, France
Distance from station: SSO 157km
Mise à jour: 20/08/2019 13:30
Très nuageux
Très nuageux
 Vent ONO
Vent: ONO 11 km/h
Température: 19°C
Point de rosée: 10°C
Humidité: 56%
Baromètre: 1024 hPa
Clouds: Très nuageux
Visibility: 10 km
Cloud details: Quelques nuages 1250 m
Très nuageux 1829 m
Très nuageux 2134 m
2019/08/20 11:30 LFPV 201130Z AUTO 30006KT 240V330 9999 FEW041 BKN060 BKN070 19/10 Q1024 NOSIG
EGMD - Lydd Airport, United Kingdom
Distance from station: NO 160km
Mise à jour: 20/08/2019 13:20
Quelques nuages
Quelques nuages
 Vent O
Vent: O 22 km/h
Température: 20°C
Point de rosée: 11°C
Humidité: 56%
Baromètre: 1023 hPa
Clouds: Quelques nuages
Visibility: 10 km
Cloud details: Quelques nuages 1067 m
2019/08/20 11:20 EGMD 201120Z 26012KT 220V280 9999 FEW035 20/11 Q1023